Weather at Likiep Airport

Public forecast

Using degrees Celsius for public forecast. Weather courtesy of forecast.io.

Closest aviation weather report (METAR) to Likiep Airport

Closest report is Bucholz Army Air Field, 114.5 nm (212.0 km) SW.

2024/05/26 11:40 (retrieved 19 minutes ago)

PKWA 261140Z COR 06015KT 10SM SCT020 SCT027 BKN033 28/25 A2988 RMK AO2 T02840254

Closest aviation forecast (TAF) to Likiep Airport

Closest forecast is Bucholz Army Air Field, 114.5 nm (212.0 km) SW.

2024/05/26 06:42 (retrieved 5 hours ago)

TAF PKWA 260538Z 2606/2706 07015KT P6SM VCSH SCT018 SCT050